Time;durP1;ratioP1;P1;durP2;ratioP2;P2;SDS_P1;SDS_P2;PMS_P1;PMS_P2;Temp;Humidity;BMP_temperature;BMP_pressure;BME280_temperature;BME280_humidity;BME280_pressure;Samples;Min_cycle;Max_cycle;Signal;HPM_P1;HPM_P2
2022/09/01 00:01:42;;;;;;;3.40;3.00;;;23.00;44.90;;;;;;5054244;28;20464;-88
2022/09/01 00:04:12;;;;;;;3.10;2.03;;;23.00;44.90;;;;;;5072690;28;20932;-87
2022/09/01 00:06:39;;;;;;;2.50;2.30;;;22.90;44.80;;;;;;5076692;28;20460;-87
2022/09/01 00:09:09;;;;;;;3.10;2.60;;;22.80;45.30;;;;;;5058819;28;20942;-88
2022/09/01 00:11:36;;;;;;;2.80;2.60;;;22.90;45.20;;;;;;5016794;28;20509;-90
2022/09/01 00:14:07;;;;;;;3.77;2.50;;;22.80;45.20;;;;;;5064879;28;20445;-87
2022/09/01 00:16:34;;;;;;;2.60;2.40;;;22.40;45.80;;;;;;5056820;28;20741;-91
2022/09/01 00:19:02;;;;;;;2.90;2.50;;;21.90;46.60;;;;;;5047189;28;20963;-86
2022/09/01 00:21:41;;;;;;;3.00;2.80;;;21.70;47.20;;;;;;5028016;28;20464;-87
2022/09/01 00:24:08;;;;;;;2.77;2.57;;;21.40;47.80;;;;;;5068767;28;20983;-87
2022/09/01 00:26:36;;;;;;;2.53;2.33;;;21.30;48.00;;;;;;5062112;28;20521;-86
2022/09/01 00:29:04;;;;;;;3.33;2.70;;;21.60;47.50;;;;;;5060756;28;20444;-88
2022/09/01 00:31:32;;;;;;;3.43;2.50;;;21.90;47.00;;;;;;5038427;28;20449;-87
2022/09/01 00:33:59;;;;;;;4.27;2.80;;;22.10;46.50;;;;;;5054197;28;20452;-88
2022/09/01 00:36:27;;;;;;;1.90;1.80;;;22.20;46.30;;;;;;5032274;28;20469;-87
2022/09/01 00:38:54;;;;;;;2.40;2.20;;;22.30;46.00;;;;;;5031437;28;20949;-87
2022/09/01 00:41:23;;;;;;;3.27;2.10;;;22.30;45.80;;;;;;5073682;28;20460;-88
2022/09/01 00:43:52;;;;;;;2.70;2.50;;;22.40;45.90;;;;;;5064268;28;20566;-87
2022/09/01 00:46:24;;;;;;;2.73;2.53;;;22.40;45.90;;;;;;5073237;28;21031;-89
2022/09/01 00:48:56;;;;;;;2.43;2.23;;;22.40;45.70;;;;;;5058827;28;20444;-86
2022/09/01 00:51:23;;;;;;;3.23;3.03;;;22.30;45.30;;;;;;5087308;28;20441;-89
2022/09/01 00:53:50;;;;;;;3.33;2.70;;;22.30;45.70;;;;;;5056869;28;20451;-87
2022/09/01 00:56:18;;;;;;;3.40;2.80;;;22.30;46.00;;;;;;5048917;28;20515;-89
2022/09/01 00:58:45;;;;;;;2.90;2.70;;;22.30;46.40;;;;;;5050888;28;20451;-88
2022/09/01 01:01:12;;;;;;;2.90;2.70;;;22.30;46.40;;;;;;5060160;28;20459;-89
2022/09/01 01:03:43;;;;;;;2.60;2.40;;;22.20;46.40;;;;;;5064605;28;20451;-87
2022/09/01 01:06:12;;;;;;;2.90;2.70;;;22.30;46.40;;;;;;5078851;28;20464;-88
2022/09/01 01:08:55;;;;;;;3.10;2.80;;;22.20;46.30;;;;;;5067048;28;20526;-87
2022/09/01 01:11:22;;;;;;;2.73;2.53;;;22.20;46.40;;;;;;5069896;28;20463;-88
2022/09/01 01:13:53;;;;;;;2.83;2.63;;;22.20;46.50;;;;;;5059848;28;20853;-87
2022/09/01 01:16:21;;;;;;;3.03;2.80;;;22.20;46.40;;;;;;5070087;28;20467;-88
2022/09/01 01:18:49;;;;;;;2.60;2.40;;;22.20;46.30;;;;;;5044871;28;20448;-87
2022/09/01 01:24:17;;;;;;;2.77;2.47;;;22.20;46.50;;;;;;5055123;28;20549;-88
2022/09/01 01:26:44;;;;;;;3.37;2.53;;;22.10;47.00;;;;;;5044339;28;20507;-93
2022/09/01 01:29:12;;;;;;;4.87;2.87;;;21.90;47.50;;;;;;5042654;28;20455;-87
2022/09/01 01:31:39;;;;;;;2.50;2.30;;;21.30;48.80;;;;;;5035810;28;20458;-87
2022/09/01 01:34:07;;;;;;;2.80;2.60;;;21.20;49.20;;;;;;5060250;28;20444;-90
2022/09/01 01:36:37;;;;;;;3.10;2.80;;;21.40;48.70;;;;;;5040452;28;20503;-87
2022/09/01 01:39:10;;;;;;;4.60;2.77;;;21.50;48.50;;;;;;5052061;28;20540;-92
2022/09/01 01:41:44;;;;;;;4.90;2.80;;;21.40;48.70;;;;;;5058615;28;20453;-89
2022/09/01 01:44:13;;;;;;;3.43;3.13;;;21.40;48.10;;;;;;5054944;28;20471;-89
2022/09/01 01:46:43;;;;;;;10.47;3.10;;;21.50;47.70;;;;;;5053443;28;21123;-89
2022/09/01 01:49:12;;;;;;;3.23;3.03;;;21.50;47.90;;;;;;5043092;28;20460;-88
2022/09/01 01:51:40;;;;;;;3.87;2.70;;;21.50;47.50;;;;;;5036517;28;20449;-87
2022/09/01 01:54:07;;;;;;;3.30;3.00;;;21.50;47.30;;;;;;5025476;28;20453;-87
2022/09/01 01:56:37;;;;;;;3.40;2.67;;;21.50;48.00;;;;;;5059074;28;20476;-88
2022/09/01 01:59:06;;;;;;;3.13;2.90;;;21.50;47.90;;;;;;5064911;28;20540;-90
2022/09/01 02:01:33;;;;;;;5.53;2.90;;;21.50;47.70;;;;;;5067448;28;20959;-88
2022/09/01 02:04:02;;;;;;;3.03;2.83;;;21.50;48.10;;;;;;5067797;28;20471;-87
2022/09/01 02:06:33;;;;;;;3.00;2.80;;;21.50;47.90;;;;;;5044201;28;20483;-88
2022/09/01 02:09:02;;;;;;;2.73;2.53;;;21.50;48.00;;;;;;5083262;28;21193;-88
2022/09/01 02:11:32;;;;;;;4.33;3.23;;;21.50;47.80;;;;;;5059999;28;21019;-87
2022/09/01 02:14:00;;;;;;;2.80;2.60;;;21.50;47.90;;;;;;5065289;28;20947;-87
2022/09/01 02:16:31;;;;;;;3.97;2.80;;;21.50;47.80;;;;;;5060360;28;20515;-91
2022/09/01 02:18:59;;;;;;;3.53;2.57;;;21.40;48.00;;;;;;5062386;28;20439;-87
2022/09/01 02:21:27;;;;;;;3.30;2.50;;;21.40;47.80;;;;;;5060882;28;20447;-87
2022/09/01 02:23:59;;;;;;;3.23;2.90;;;21.40;47.80;;;;;;5064295;28;20483;-89
2022/09/01 02:26:30;;;;;;;3.10;2.80;;;21.30;47.80;;;;;;5040776;28;21014;-88
2022/09/01 02:29:03;;;;;;;6.10;2.60;;;21.30;47.60;;;;;;5062261;28;20543;-89
2022/09/01 02:31:34;;;;;;;2.60;2.40;;;21.30;47.70;;;;;;5044967;28;20448;-87
2022/09/01 02:34:03;;;;;;;3.20;2.90;;;21.30;47.70;;;;;;5043309;28;20471;-87
2022/09/01 02:36:31;;;;;;;3.10;2.70;;;21.30;47.80;;;;;;5058654;28;20468;-89
2022/09/01 02:38:58;;;;;;;3.43;3.10;;;21.30;48.00;;;;;;5042398;28;20841;-87
2022/09/01 02:41:27;;;;;;;3.90;3.00;;;21.30;48.20;;;;;;5060073;28;20460;-89
2022/09/01 02:43:55;;;;;;;3.40;3.10;;;21.20;48.50;;;;;;5049643;28;20468;-87
2022/09/01 02:46:23;;;;;;;4.20;3.20;;;21.20;48.70;;;;;;5034427;28;20468;-90
2022/09/01 02:48:52;;;;;;;3.37;3.07;;;21.20;49.20;;;;;;5045346;28;20463;-90
2022/09/01 02:51:24;;;;;;;3.77;3.47;;;21.20;49.40;;;;;;5060099;28;20502;-87
2022/09/01 02:53:52;;;;;;;4.73;3.47;;;21.20;49.30;;;;;;5052626;28;20436;-88
2022/09/01 02:56:21;;;;;;;3.20;3.00;;;21.20;49.50;;;;;;5047672;28;20515;-87
2022/09/01 02:58:50;;;;;;;6.07;3.93;;;21.10;49.60;;;;;;5048195;28;20455;-87
2022/09/01 03:01:20;;;;;;;3.10;2.87;;;21.10;49.70;;;;;;5047968;28;20980;-87
2022/09/01 03:03:52;;;;;;;5.57;3.93;;;21.10;49.80;;;;;;5052650;28;20563;-89
2022/09/01 03:06:22;;;;;;;3.70;3.20;;;21.10;49.50;;;;;;5059086;28;20472;-87
2022/09/01 03:08:51;;;;;;;3.20;2.97;;;21.00;49.20;;;;;;5072474;28;20440;-87
2022/09/01 03:11:18;;;;;;;3.27;3.07;;;21.00;49.00;;;;;;5043355;28;20786;-87
2022/09/01 03:13:46;;;;;;;2.90;2.70;;;21.00;48.70;;;;;;5047419;28;20803;-89
2022/09/01 03:16:13;;;;;;;4.10;3.20;;;21.00;48.60;;;;;;5056764;28;20471;-88
2022/09/01 03:18:41;;;;;;;3.13;2.83;;;20.90;48.60;;;;;;5056653;28;20462;-87
2022/09/01 03:21:13;;;;;;;3.13;2.80;;;20.90;48.60;;;;;;5074091;28;20453;-86
2022/09/01 03:23:44;;;;;;;3.80;3.40;;;20.90;48.30;;;;;;5038326;28;20472;-89
2022/09/01 03:26:11;;;;;;;3.93;3.00;;;20.80;47.80;;;;;;5040743;28;21163;-91
2022/09/01 03:28:39;;;;;;;5.23;3.17;;;20.70;48.00;;;;;;5041265;28;20451;-90
2022/09/01 03:31:07;;;;;;;2.90;2.70;;;20.70;48.60;;;;;;5046074;28;20969;-88
2022/09/01 03:33:35;;;;;;;2.93;2.73;;;20.70;48.70;;;;;;5078906;28;20552;-87
2022/09/01 03:36:04;;;;;;;4.30;2.80;;;20.70;48.70;;;;;;5048159;28;20576;-90
2022/09/01 03:38:33;;;;;;;2.70;2.40;;;20.70;48.80;;;;;;5064750;28;20443;-89
2022/09/01 03:41:04;;;;;;;5.13;3.20;;;20.70;48.90;;;;;;5056936;28;20930;-88
2022/09/01 03:43:33;;;;;;;3.33;3.03;;;20.70;48.90;;;;;;5059645;28;20515;-88
2022/09/01 03:46:00;;;;;;;3.50;3.20;;;20.70;49.10;;;;;;5034928;28;20863;-90
2022/09/01 03:48:30;;;;;;;4.93;3.90;;;20.60;49.40;;;;;;5032260;28;20452;-88
2022/09/01 03:51:01;;;;;;;3.27;2.97;;;20.60;49.50;;;;;;5034672;28;20436;-88
2022/09/01 03:53:30;;;;;;;3.83;3.37;;;20.60;49.60;;;;;;5049249;28;20452;-87
2022/09/01 03:55:59;;;;;;;3.73;3.30;;;20.60;49.50;;;;;;5043754;28;20484;-87
2022/09/01 03:58:26;;;;;;;3.00;2.80;;;20.50;48.80;;;;;;5060842;28;20443;-87
2022/09/01 04:00:55;;;;;;;2.83;2.63;;;20.50;49.30;;;;;;5039326;28;20487;-87
2022/09/01 04:03:24;;;;;;;3.87;3.00;;;20.40;49.30;;;;;;5043625;28;20984;-88
2022/09/01 04:05:54;;;;;;;3.53;3.27;;;20.40;49.30;;;;;;5055994;28;20468;-90
2022/09/01 04:08:29;;;;;;;3.30;3.00;;;20.40;49.30;;;;;;5048495;28;20456;-88
2022/09/01 04:11:03;;;;;;;3.63;3.37;;;20.30;49.50;;;;;;5058166;28;20506;-87
2022/09/01 04:13:35;;;;;;;4.50;3.63;;;20.30;49.60;;;;;;5042844;28;20440;-87
2022/09/01 04:16:09;;;;;;;3.10;2.80;;;20.30;49.50;;;;;;5074745;28;20471;-88
2022/09/01 04:18:35;;;;;;;3.50;3.20;;;20.30;49.30;;;;;;5071898;28;20944;-90
2022/09/01 04:21:06;;;;;;;5.87;4.03;;;20.30;49.20;;;;;;5060762;28;20960;-87
2022/09/01 04:23:35;;;;;;;6.10;2.90;;;20.20;48.90;;;;;;5052254;28;20471;-89
2022/09/01 04:26:13;;;;;;;3.63;3.10;;;20.20;49.40;;;;;;5063060;28;20836;-89
2022/09/01 04:28:44;;;;;;;3.40;3.10;;;20.10;49.40;;;;;;5035098;28;20851;-87
2022/09/01 04:31:17;;;;;;;4.27;3.00;;;20.20;49.50;;;;;;5067584;28;20494;-87
2022/09/01 04:33:46;;;;;;;3.87;3.20;;;20.20;49.30;;;;;;5065922;28;20448;-87
2022/09/01 04:36:18;;;;;;;4.77;3.20;;;20.10;49.40;;;;;;5048888;28;20462;-88
2022/09/01 04:38:46;;;;;;;3.53;3.23;;;20.10;49.50;;;;;;5079574;28;21193;-87
2022/09/01 04:41:16;;;;;;;4.37;3.73;;;20.10;49.50;;;;;;5046469;28;20444;-90
2022/09/01 04:43:43;;;;;;;3.37;2.93;;;20.10;49.90;;;;;;5064011;28;20498;-87
2022/09/01 04:46:13;;;;;;;3.90;3.50;;;20.10;50.00;;;;;;5045495;28;20558;-87
2022/09/01 04:48:41;;;;;;;5.13;4.00;;;20.10;50.60;;;;;;5053998;28;20902;-89
2022/09/01 04:51:09;;;;;;;9.00;3.93;;;20.10;50.50;;;;;;5077413;28;20455;-91
2022/09/01 04:53:50;;;;;;;3.57;3.27;;;20.10;50.50;;;;;;5066235;28;20451;-91
2022/09/01 04:56:21;;;;;;;4.97;3.33;;;20.10;50.50;;;;;;5042490;28;20542;-88
2022/09/01 04:59:00;;;;;;;3.43;3.13;;;20.10;50.70;;;;;;5072696;28;20449;-87
2022/09/01 05:01:27;;;;;;;4.67;3.83;;;20.10;51.00;;;;;;5047828;28;20451;-90
2022/09/01 05:04:00;;;;;;;4.97;3.67;;;20.10;50.90;;;;;;5067796;28;20483;-89
2022/09/01 05:06:38;;;;;;;4.00;3.40;;;20.10;50.80;;;;;;5032692;28;20878;-89
2022/09/01 05:09:08;;;;;;;4.90;3.20;;;20.10;50.70;;;;;;5054646;28;20539;-86
2022/09/01 05:11:49;;;;;;;5.07;3.90;;;20.10;50.60;;;;;;5057071;28;20455;-87
2022/09/01 05:14:31;;;;;;;4.83;3.97;;;20.10;50.40;;;;;;5052248;28;20447;-87
2022/09/01 05:17:00;;;;;;;6.33;3.97;;;20.10;50.40;;;;;;5047247;28;20983;-87
2022/09/01 05:19:29;;;;;;;4.03;3.67;;;20.00;50.60;;;;;;5035814;28;20960;-87
2022/09/01 05:21:59;;;;;;;3.30;3.00;;;20.10;50.80;;;;;;5042725;28;20431;-87
2022/09/01 05:24:29;;;;;;;3.53;3.23;;;20.10;51.30;;;;;;5061163;28;20526;-87
2022/09/01 05:26:59;;;;;;;3.97;3.60;;;20.10;51.20;;;;;;5035792;28;21334;-90
2022/09/01 05:29:28;;;;;;;4.23;3.83;;;20.10;51.50;;;;;;5038599;28;20441;-87
2022/09/01 05:31:56;;;;;;;4.17;3.50;;;20.10;51.50;;;;;;5066927;28;20538;-88
2022/09/01 05:34:26;;;;;;;5.23;3.43;;;20.10;51.40;;;;;;5066579;28;20436;-86
2022/09/01 05:36:56;;;;;;;4.00;3.70;;;20.10;51.20;;;;;;5045068;28;20464;-90
2022/09/01 05:39:24;;;;;;;3.70;3.40;;;20.20;51.20;;;;;;5054738;28;20450;-87
2022/09/01 05:41:52;;;;;;;3.40;3.10;;;20.10;51.40;;;;;;5064254;28;20451;-88
2022/09/01 05:44:22;;;;;;;4.70;3.40;;;20.10;51.30;;;;;;5032656;28;20908;-86
2022/09/01 05:46:52;;;;;;;4.00;3.40;;;20.10;51.30;;;;;;5057441;28;20583;-88
2022/09/01 05:49:19;;;;;;;4.27;3.87;;;20.20;51.50;;;;;;5029543;28;20825;-87
2022/09/01 05:51:50;;;;;;;6.83;3.43;;;20.20;51.40;;;;;;5055541;28;20451;-91
2022/09/01 05:54:21;;;;;;;4.83;4.43;;;20.20;51.40;;;;;;5058909;28;20444;-88
2022/09/01 05:56:49;;;;;;;4.53;4.10;;;20.20;51.50;;;;;;5047187;28;20463;-87
2022/09/01 05:59:22;;;;;;;4.67;4.27;;;20.20;51.60;;;;;;5050290;28;20788;-88
2022/09/01 06:01:51;;;;;;;3.83;3.53;;;20.20;51.70;;;;;;5019990;28;21212;-87
2022/09/01 06:04:18;;;;;;;4.30;3.90;;;20.20;51.80;;;;;;5041860;28;20556;-88
2022/09/01 06:06:49;;;;;;;3.77;3.47;;;20.30;51.90;;;;;;5030822;28;20502;-88
2022/09/01 06:09:19;;;;;;;4.23;3.53;;;20.30;51.90;;;;;;5025530;28;20511;-87
2022/09/01 06:11:47;;;;;;;5.73;3.70;;;20.30;51.90;;;;;;5057400;28;20464;-87
2022/09/01 06:14:14;;;;;;;4.77;4.37;;;20.30;52.10;;;;;;5055888;28;20481;-88
2022/09/01 06:16:46;;;;;;;6.60;4.20;;;20.40;52.40;;;;;;5063839;28;20504;-90
2022/09/01 06:19:14;;;;;;;7.27;3.93;;;20.40;52.70;;;;;;5059984;28;20451;-85
2022/09/01 06:21:45;;;;;;;10.30;4.00;;;20.30;53.40;;;;;;5031517;28;20448;-87
2022/09/01 06:24:13;;;;;;;5.90;4.40;;;20.40;53.80;;;;;;5064259;28;20530;-86
2022/09/01 06:26:42;;;;;;;5.00;3.90;;;20.40;53.60;;;;;;5047434;28;20486;-87
2022/09/01 06:29:14;;;;;;;4.70;3.90;;;20.60;53.20;;;;;;5065882;28;20479;-87
2022/09/01 06:31:51;;;;;;;6.10;4.00;;;20.60;52.40;;;;;;5083902;28;20443;-88
2022/09/01 06:34:21;;;;;;;7.30;4.07;;;20.60;52.30;;;;;;5063915;28;20459;-87
2022/09/01 06:36:50;;;;;;;7.07;3.93;;;20.70;52.60;;;;;;5063937;28;20570;-88
2022/09/01 06:39:19;;;;;;;5.63;3.67;;;20.70;52.10;;;;;;5070361;28;20444;-85
2022/09/01 06:41:51;;;;;;;6.67;3.60;;;20.70;53.10;;;;;;5044861;28;20450;-88
2022/09/01 06:44:21;;;;;;;6.93;3.60;;;20.80;52.40;;;;;;5044516;28;20471;-87
2022/09/01 06:46:54;;;;;;;5.97;3.50;;;20.90;52.00;;;;;;5032416;28;20478;-87
2022/09/01 06:49:28;;;;;;;5.70;3.80;;;21.00;52.10;;;;;;5062857;28;20817;-86
2022/09/01 06:51:55;;;;;;;10.53;4.00;;;21.10;52.10;;;;;;5060506;28;20475;-86
2022/09/01 06:54:24;;;;;;;10.10;3.67;;;21.20;52.00;;;;;;5059830;28;20447;-86
2022/09/01 06:56:52;;;;;;;7.20;3.93;;;21.20;51.80;;;;;;5044629;28;20470;-87
2022/09/01 06:59:20;;;;;;;8.07;3.83;;;21.20;51.50;;;;;;5035870;28;20974;-86
2022/09/01 07:01:51;;;;;;;7.87;3.93;;;21.10;51.60;;;;;;5056978;28;20452;-87
2022/09/01 07:04:21;;;;;;;6.10;3.80;;;21.10;51.60;;;;;;5048570;28;20460;-89
2022/09/01 07:06:53;;;;;;;5.70;3.17;;;21.20;51.70;;;;;;5040506;28;20464;-86
2022/09/01 07:09:43;;;;;;;12.50;3.70;;;21.20;52.10;;;;;;5076031;28;20455;-88
2022/09/01 07:12:23;;;;;;;12.57;4.10;;;21.30;52.00;;;;;;5031660;28;20452;-88
2022/09/01 07:14:52;;;;;;;7.70;3.93;;;21.30;51.80;;;;;;5045444;28;20443;-87
2022/09/01 07:17:20;;;;;;;3.63;3.33;;;21.40;51.40;;;;;;5055545;28;20439;-87
2022/09/01 07:19:49;;;;;;;9.47;4.27;;;21.50;51.70;;;;;;5044669;28;21819;-86
2022/09/01 07:22:16;;;;;;;9.20;3.67;;;21.60;51.40;;;;;;5062123;28;20500;-86
2022/09/01 07:24:47;;;;;;;9.53;3.83;;;21.60;51.40;;;;;;5053897;28;20957;-86
2022/09/01 07:27:34;;;;;;;7.90;3.60;;;21.70;51.20;;;;;;5077030;28;20446;-87
2022/09/01 07:30:02;;;;;;;5.83;3.07;;;21.80;51.40;;;;;;5039797;28;20448;-90
2022/09/01 07:32:30;;;;;;;4.17;3.03;;;21.90;51.20;;;;;;5046152;28;20456;-86
2022/09/01 07:35:00;;;;;;;9.53;3.40;;;22.00;51.10;;;;;;5029197;28;20481;-87
2022/09/01 07:37:28;;;;;;;4.70;3.13;;;22.00;51.20;;;;;;5046777;28;20440;-89
2022/09/01 07:39:55;;;;;;;4.90;3.40;;;22.20;50.60;;;;;;5049632;28;20451;-86
2022/09/01 07:42:42;;;;;;;9.63;3.43;;;22.20;50.80;;;;;;5035051;28;20456;-87
2022/09/01 07:45:49;;;;;;;11.30;3.20;;;22.30;50.70;;;;;;5040910;28;21067;-87
2022/09/01 07:48:19;;;;;;;3.57;3.27;;;22.40;49.50;;;;;;5056412;28;20543;-88
2022/09/01 07:50:52;;;;;;;3.37;3.17;;;22.50;49.80;;;;;;5059757;28;20967;-87
2022/09/01 07:53:22;;;;;;;3.93;3.60;;;22.50;49.50;;;;;;5062660;28;21203;-89
2022/09/01 07:55:51;;;;;;;6.40;3.63;;;22.60;48.70;;;;;;5043041;28;20479;-90
2022/09/01 07:58:20;;;;;;;5.13;3.30;;;22.70;48.60;;;;;;5039523;28;20456;-87
2022/09/01 08:00:48;;;;;;;4.13;3.23;;;22.90;48.50;;;;;;5054563;28;20462;-88
2022/09/01 08:03:18;;;;;;;4.70;3.33;;;22.90;47.90;;;;;;5034989;28;20452;-89
2022/09/01 08:05:46;;;;;;;10.47;3.30;;;23.00;48.00;;;;;;5042746;28;20862;-88
2022/09/01 08:08:14;;;;;;;4.07;3.27;;;23.10;47.80;;;;;;5059887;28;20939;-85
2022/09/01 08:10:44;;;;;;;4.17;3.53;;;23.40;47.80;;;;;;5038848;28;20486;-87
2022/09/01 08:13:11;;;;;;;5.30;3.30;;;23.60;47.40;;;;;;5059674;28;20452;-88
2022/09/01 08:15:39;;;;;;;4.30;3.47;;;23.50;46.40;;;;;;5038905;28;20568;-88
2022/09/01 08:18:07;;;;;;;3.70;3.20;;;23.30;47.10;;;;;;5038679;28;20539;-88
2022/09/01 08:20:43;;;;;;;7.00;3.93;;;23.20;47.60;;;;;;5060001;28;20448;-89
2022/09/01 08:23:26;;;;;;;4.00;3.60;;;23.20;47.30;;;;;;5016080;28;20445;-85
2022/09/01 08:25:54;;;;;;;3.87;3.67;;;23.40;47.00;;;;;;5028806;28;20932;-91
2022/09/01 08:28:21;;;;;;;5.13;3.63;;;23.70;47.10;;;;;;5041641;28;20824;-90
2022/09/01 08:30:48;;;;;;;5.30;3.97;;;23.80;46.20;;;;;;5040354;28;20463;-88
2022/09/01 08:33:16;;;;;;;6.40;3.43;;;24.00;46.40;;;;;;5042540;28;20437;-87
2022/09/01 08:35:48;;;;;;;5.63;4.13;;;24.30;46.10;;;;;;5055256;28;20474;-87
2022/09/01 08:38:16;;;;;;;5.00;3.63;;;24.60;45.40;;;;;;5045360;28;20448;-88
2022/09/01 08:40:52;;;;;;;4.43;3.20;;;24.80;44.90;;;;;;5053022;28;20476;-87
2022/09/01 08:43:30;;;;;;;3.90;3.20;;;25.00;44.40;;;;;;5021631;28;20510;-86
2022/09/01 08:46:03;;;;;;;3.40;3.20;;;25.10;44.20;;;;;;5047383;28;20483;-87
2022/09/01 08:48:37;;;;;;;5.57;3.50;;;25.10;43.20;;;;;;5062735;28;20470;-89
2022/09/01 08:51:13;;;;;;;6.20;3.40;;;25.00;43.60;;;;;;5061442;28;20452;-86
2022/09/01 08:54:01;;;;;;;4.23;3.73;;;25.00;43.80;;;;;;5051091;28;20460;-86
2022/09/01 08:56:29;;;;;;;7.53;3.10;;;25.10;43.70;;;;;;5074051;28;20495;-88
2022/09/01 08:58:58;;;;;;;4.83;3.37;;;24.90;43.50;;;;;;5057843;28;20683;-89
2022/09/01 09:01:38;;;;;;;4.50;3.20;;;24.80;43.90;;;;;;5029500;28;20475;-88
2022/09/01 09:04:17;;;;;;;5.90;3.40;;;24.80;44.30;;;;;;5052145;28;21006;-88
2022/09/01 09:06:54;;;;;;;4.27;3.93;;;24.80;43.50;;;;;;5065090;28;21197;-86
2022/09/01 09:09:21;;;;;;;4.13;3.20;;;24.70;43.90;;;;;;5073832;28;20480;-86
2022/09/01 09:12:14;;;;;;;5.30;3.13;;;24.80;43.90;;;;;;5079782;28;21521;-87
2022/09/01 09:14:51;;;;;;;3.80;3.50;;;24.80;43.00;;;;;;5057712;28;20462;-91
2022/09/01 09:17:22;;;;;;;4.73;3.10;;;25.00;43.80;;;;;;5053150;28;20443;-87
2022/09/01 09:19:49;;;;;;;6.87;3.70;;;25.30;42.80;;;;;;5059938;28;20462;-90
2022/09/01 09:22:18;;;;;;;3.63;3.40;;;25.50;41.90;;;;;;5077238;28;20547;-90
2022/09/01 09:24:50;;;;;;;4.50;3.23;;;25.30;41.60;;;;;;5053943;28;20444;-88
2022/09/01 09:27:21;;;;;;;3.33;3.03;;;25.50;42.30;;;;;;5059743;28;20448;-88
2022/09/01 09:29:51;;;;;;;6.97;3.17;;;25.70;41.20;;;;;;5060797;28;22145;-90
2022/09/01 09:32:18;;;;;;;2.87;2.67;;;25.80;40.90;;;;;;5078488;28;21063;-88
2022/09/01 09:34:46;;;;;;;9.67;3.00;;;26.00;41.00;;;;;;5081166;28;20443;-89
2022/09/01 09:37:25;;;;;;;2.73;2.50;;;26.10;39.50;;;;;;5062251;28;20787;-88
2022/09/01 09:40:09;;;;;;;3.03;2.83;;;26.10;39.70;;;;;;5081087;28;20450;-87
2022/09/01 09:42:38;;;;;;;3.50;3.20;;;26.40;39.60;;;;;;5062501;28;20458;-88
2022/09/01 09:45:13;;;;;;;3.70;2.60;;;26.30;39.70;;;;;;5049336;28;22103;-88
2022/09/01 09:47:42;;;;;;;2.80;2.60;;;26.10;39.10;;;;;;5061403;28;20444;-88
2022/09/01 09:50:21;;;;;;;3.20;2.90;;;26.10;38.80;;;;;;5079101;28;20551;-88
2022/09/01 09:52:48;;;;;;;5.20;2.50;;;26.00;39.40;;;;;;5043706;28;20472;-91
2022/09/01 09:55:25;;;;;;;3.03;2.80;;;26.30;39.20;;;;;;5046375;28;20496;-89
2022/09/01 09:57:57;;;;;;;3.20;2.90;;;26.50;38.10;;;;;;5061965;28;20455;-87
2022/09/01 10:00:26;;;;;;;3.10;2.90;;;26.70;37.40;;;;;;5079779;28;20448;-91
2022/09/01 10:02:57;;;;;;;4.40;3.03;;;26.80;37.60;;;;;;5082754;28;20934;-88
2022/09/01 10:05:31;;;;;;;4.17;2.83;;;27.10;37.20;;;;;;5050214;28;20476;-90
2022/09/01 10:07:58;;;;;;;2.77;2.57;;;27.40;35.90;;;;;;5045245;28;20455;-91
2022/09/01 10:10:30;;;;;;;2.67;2.47;;;27.60;36.00;;;;;;5064301;28;20463;-88
2022/09/01 10:12:59;;;;;;;2.80;2.60;;;27.60;35.00;;;;;;5064266;28;20458;-88
2022/09/01 10:15:30;;;;;;;2.87;2.40;;;27.70;34.70;;;;;;5062385;28;20506;-88
2022/09/01 10:18:04;;;;;;;2.17;2.07;;;27.70;34.30;;;;;;5036247;28;20506;-87
2022/09/01 10:20:33;;;;;;;2.93;2.47;;;27.80;33.20;;;;;;5081388;28;20451;-89
2022/09/01 10:23:02;;;;;;;3.40;2.67;;;27.70;34.00;;;;;;5047146;28;20444;-89
2022/09/01 10:25:33;;;;;;;2.47;2.23;;;27.50;34.10;;;;;;5066160;28;20491;-87
2022/09/01 10:28:10;;;;;;;3.40;3.00;;;27.50;34.80;;;;;;5062145;28;20449;-90
2022/09/01 10:30:41;;;;;;;3.00;2.37;;;27.70;34.00;;;;;;5062586;28;20444;-90
2022/09/01 10:33:09;;;;;;;3.67;2.37;;;27.60;34.20;;;;;;5085079;28;20535;-87
2022/09/01 10:35:41;;;;;;;2.97;2.70;;;27.70;34.80;;;;;;5066943;28;20502;-88
2022/09/01 10:38:11;;;;;;;2.60;2.37;;;27.50;34.90;;;;;;5043694;28;20457;-87
2022/09/01 10:40:40;;;;;;;2.50;2.30;;;27.80;33.70;;;;;;5063297;28;20465;-86
2022/09/01 10:43:33;;;;;;;3.50;3.10;;;27.90;33.40;;;;;;5060533;28;20992;-88
2022/09/01 10:46:39;;;;;;;2.77;2.57;;;27.90;34.00;;;;;;5034357;28;20498;-86
2022/09/01 10:49:21;;;;;;;3.40;2.50;;;28.10;34.10;;;;;;5060820;28;20447;-91
2022/09/01 10:51:48;;;;;;;4.30;2.93;;;28.40;32.70;;;;;;5051855;28;20440;-88
2022/09/01 10:54:48;;;;;;;2.63;2.43;;;28.30;32.90;;;;;;5038059;28;20444;-87
2022/09/01 10:57:36;;;;;;;2.90;2.60;;;28.20;32.10;;;;;;5063902;28;20444;-88
2022/09/01 11:00:41;;;;;;;2.97;2.77;;;28.40;32.40;;;;;;5070825;28;20935;-85
2022/09/01 11:03:48;;;;;;;2.87;2.67;;;28.70;32.40;;;;;;5062258;28;20444;-90
2022/09/01 11:06:43;;;;;;;4.00;2.30;;;29.00;30.90;;;;;;5045730;28;20472;-87
2022/09/01 11:09:22;;;;;;;3.73;2.40;;;29.30;30.30;;;;;;5080359;28;20453;-89
2022/09/01 11:12:11;;;;;;;4.07;2.40;;;29.60;30.20;;;;;;5068392;28;20482;-87
2022/09/01 11:14:49;;;;;;;2.63;2.10;;;29.70;29.60;;;;;;5068011;28;20532;-85
2022/09/01 11:17:19;;;;;;;2.30;2.20;;;29.80;30.20;;;;;;5081405;28;20461;-91
2022/09/01 11:19:54;;;;;;;3.53;2.57;;;29.70;29.60;;;;;;5063427;28;20450;-87
2022/09/01 11:22:28;;;;;;;3.53;2.50;;;29.30;30.00;;;;;;5063981;28;20448;-87
2022/09/01 11:25:30;;;;;;;2.33;2.17;;;29.20;30.00;;;;;;5042690;28;20432;-91
2022/09/01 11:28:04;;;;;;;2.33;2.13;;;29.00;30.00;;;;;;5040495;28;20495;-90
2022/09/01 11:30:50;;;;;;;2.57;2.37;;;29.10;30.30;;;;;;5074998;28;20532;-87
2022/09/01 11:33:52;;;;;;;3.50;2.20;;;29.20;30.50;;;;;;5066504;28;20540;-88
2022/09/01 11:36:28;;;;;;;2.37;2.17;;;29.10;30.40;;;;;;5034568;28;20455;-90
2022/09/01 11:39:05;;;;;;;2.30;2.10;;;29.00;29.80;;;;;;5062488;28;20955;-89
2022/09/01 11:41:35;;;;;;;2.80;2.13;;;28.90;30.00;;;;;;5064008;28;20489;-86
2022/09/01 11:44:12;;;;;;;2.40;2.23;;;28.90;30.00;;;;;;5041880;28;20790;-89
2022/09/01 11:46:42;;;;;;;4.60;2.80;;;28.80;31.00;;;;;;5075675;28;20991;-89
2022/09/01 11:49:25;;;;;;;2.43;2.23;;;28.60;30.40;;;;;;5060445;28;20848;-87
2022/09/01 11:51:52;;;;;;;2.70;2.50;;;28.70;31.30;;;;;;5075520;28;20460;-91
2022/09/01 11:54:20;;;;;;;2.87;2.00;;;29.00;30.30;;;;;;5076456;28;20572;-88
2022/09/01 11:56:47;;;;;;;3.00;2.27;;;29.20;30.20;;;;;;5054645;28;20469;-89
2022/09/01 11:59:14;;;;;;;1.80;1.70;;;29.40;29.20;;;;;;5033217;28;20449;-87
2022/09/01 12:01:42;;;;;;;3.50;2.60;;;29.50;29.40;;;;;;5059360;28;20559;-88
2022/09/01 12:04:21;;;;;;;2.13;2.03;;;29.40;29.60;;;;;;5072468;28;20476;-88
2022/09/01 12:06:54;;;;;;;2.60;2.40;;;29.30;29.50;;;;;;5068837;28;20487;-87
2022/09/01 12:09:32;;;;;;;3.40;2.77;;;29.50;29.40;;;;;;5070623;28;20436;-88
2022/09/01 12:11:59;;;;;;;3.70;2.50;;;29.60;28.80;;;;;;5066918;28;20447;-89
2022/09/01 12:14:26;;;;;;;3.50;2.43;;;29.80;28.70;;;;;;5036757;28;20457;-88
2022/09/01 12:16:59;;;;;;;2.50;2.30;;;30.20;28.70;;;;;;5069796;28;20500;-89
2022/09/01 12:19:30;;;;;;;7.90;2.40;;;30.50;28.00;;;;;;5037408;28;20540;-91
2022/09/01 12:22:01;;;;;;;2.70;2.17;;;30.90;27.20;;;;;;5046137;28;20507;-88
2022/09/01 12:24:34;;;;;;;2.80;2.50;;;30.70;26.80;;;;;;5072746;28;20452;-91
2022/09/01 12:27:01;;;;;;;2.47;2.00;;;29.80;28.30;;;;;;5071235;28;20488;-88
2022/09/01 12:29:30;;;;;;;4.50;2.40;;;29.80;28.80;;;;;;5070392;28;21016;-91
2022/09/01 12:31:57;;;;;;;3.30;2.43;;;30.30;28.50;;;;;;5047830;28;20437;-88
2022/09/01 12:34:27;;;;;;;2.43;2.07;;;30.70;27.60;;;;;;5073615;28;20451;-86
2022/09/01 12:37:07;;;;;;;2.33;2.20;;;30.80;26.60;;;;;;5050001;28;20461;-88
2022/09/01 12:39:38;;;;;;;2.57;2.37;;;30.70;26.80;;;;;;5054464;28;20440;-87
2022/09/01 12:42:09;;;;;;;2.73;2.40;;;30.80;26.70;;;;;;5052174;28;20448;-89
2022/09/01 12:44:45;;;;;;;2.97;2.40;;;30.60;26.70;;;;;;5071460;28;20585;-87
2022/09/01 12:47:34;;;;;;;4.23;3.10;;;30.70;26.90;;;;;;5049099;28;20477;-88
2022/09/01 12:50:02;;;;;;;2.73;2.50;;;30.50;27.00;;;;;;5060040;28;20448;-90
2022/09/01 12:52:30;;;;;;;2.60;2.40;;;30.10;27.50;;;;;;5045112;28;20964;-89
2022/09/01 12:55:15;;;;;;;3.00;2.80;;;30.00;28.20;;;;;;5073315;28;20459;-89
2022/09/01 12:57:50;;;;;;;2.60;2.40;;;30.20;28.40;;;;;;5042855;28;20439;-91
2022/09/01 13:00:19;;;;;;;2.80;2.60;;;30.40;28.20;;;;;;5063820;28;20448;-90
2022/09/01 13:02:48;;;;;;;2.50;2.20;;;30.50;27.30;;;;;;5076397;28;20467;-88
2022/09/01 13:05:29;;;;;;;2.50;2.30;;;30.70;26.60;;;;;;5053516;28;20479;-87
2022/09/01 13:07:58;;;;;;;2.60;2.30;;;30.40;26.50;;;;;;5053481;28;20463;-90
2022/09/01 13:10:30;;;;;;;2.40;2.20;;;30.20;26.90;;;;;;5073570;28;20472;-88
2022/09/01 13:12:57;;;;;;;2.50;2.30;;;30.20;27.60;;;;;;5073707;28;20456;-88